Time;durP1;ratioP1;P1;durP2;ratioP2;P2;SDS_P1;SDS_P2;PMS_P1;PMS_P2;Temp;Humidity;BMP_temperature;BMP_pressure;BME280_temperature;BME280_humidity;BME280_pressure;Samples;Min_cycle;Max_cycle;Signal;HPM_P1;HPM_P2
2023/06/10 00:02:54;;;;;;;0.87;0.80;;;;;;;19.80;58.21;96202.88;10496980;28;20331;-33
2023/06/10 00:07:55;;;;;;;0.60;0.60;;;;;;;19.80;58.49;96199.47;10491827;28;20520;-33
2023/06/10 00:12:56;;;;;;;0.60;0.60;;;;;;;19.95;59.26;96201.81;10497280;28;20414;-33
2023/06/10 00:17:56;;;;;;;0.47;0.47;;;;;;;20.10;58.70;96202.47;10494537;28;20032;-33
2023/06/10 00:22:59;;;;;;;0.57;0.57;;;;;;;19.98;58.81;96202.63;10496170;28;20028;-33
2023/06/10 00:27:59;;;;;;;0.57;0.57;;;;;;;19.91;58.73;96206.09;10490205;28;20028;-32
2023/06/10 00:33:02;;;;;;;0.80;0.70;;;;;;;19.87;58.59;96201.06;10486004;28;20047;-34
2023/06/10 00:38:02;;;;;;;0.80;0.80;;;;;;;19.84;58.45;96198.59;10490549;28;20032;-33
2023/06/10 00:43:02;;;;;;;1.10;1.00;;;;;;;19.82;58.45;96208.75;10475957;28;20025;-33
2023/06/10 00:48:03;;;;;;;1.03;0.73;;;;;;;19.82;58.21;96206.22;10476822;28;20033;-34
2023/06/10 00:53:04;;;;;;;0.93;0.90;;;;;;;19.81;58.24;96203.69;10484341;28;20110;-33
2023/06/10 00:58:07;;;;;;;0.98;0.80;;;;;;;19.80;58.31;96202.88;10476630;28;20550;-33
2023/06/10 01:03:08;;;;;;;0.65;0.65;;;;;;;19.80;58.09;96207.09;10491811;28;20033;-33
2023/06/10 01:08:25;;;;;;;0.70;0.70;;;;;;;19.99;59.16;96213.59;10464075;28;20062;-33
2023/06/10 01:13:31;;;;;;;0.50;0.50;;;;;;;20.10;58.56;96212.63;10475776;28;20025;-33
2023/06/10 01:18:32;;;;;;;0.55;0.55;;;;;;;19.92;58.64;96212.03;10469288;28;20383;-32
2023/06/10 01:23:32;;;;;;;0.73;0.73;;;;;;;19.89;58.73;96223.06;10475500;28;20024;-34
2023/06/10 01:28:47;;;;;;;0.63;0.63;;;;;;;19.86;58.71;96212.09;10485701;28;20474;-34
2023/06/10 01:33:52;;;;;;;0.70;0.70;;;;;;;19.84;58.41;96224.00;10486195;28;20035;-33
2023/06/10 01:38:53;;;;;;;0.60;0.60;;;;;;;19.81;58.07;96224.88;10492873;28;20024;-33
2023/06/10 01:43:54;;;;;;;0.80;0.80;;;;;;;19.79;58.15;96230.81;10469366;28;20056;-34
2023/06/10 01:48:56;;;;;;;0.50;0.50;;;;;;;19.79;58.22;96225.75;10474791;28;20028;-33
2023/06/10 01:53:56;;;;;;;0.85;0.73;;;;;;;19.79;57.97;96235.91;10473737;28;20407;-33
2023/06/10 01:58:58;;;;;;;0.60;0.60;;;;;;;19.83;59.72;96232.47;10473989;28;20036;-33
2023/06/10 02:03:59;;;;;;;0.75;0.75;;;;;;;20.00;59.07;96236.47;10473412;28;20090;-33
2023/06/10 02:08:59;;;;;;;0.50;0.50;;;;;;;20.09;58.36;96235.53;10491699;28;20091;-34
2023/06/10 02:14:02;;;;;;;0.60;0.60;;;;;;;19.94;58.64;96236.53;10472776;28;20036;-33
2023/06/10 02:19:06;;;;;;;0.70;0.70;;;;;;;19.89;58.01;96245.94;10490281;28;20469;-33
2023/06/10 02:24:07;;;;;;;1.20;0.65;;;;;;;19.85;58.44;96241.72;10491667;28;21143;-32
2023/06/10 02:29:09;;;;;;;0.75;0.75;;;;;;;19.84;58.43;96239.25;10475705;28;20031;-33
2023/06/10 02:34:10;;;;;;;4.57;1.10;;;;;;;19.82;58.25;96235.84;10466485;28;20052;-33
2023/06/10 02:39:13;;;;;;;0.93;0.93;;;;;;;19.74;58.11;96223.25;10481441;28;20071;-34
2023/06/10 02:44:14;;;;;;;1.00;1.00;;;;;;;19.82;58.36;96233.31;10465576;28;20037;-33
2023/06/10 02:49:15;;;;;;;0.90;0.90;;;;;;;19.82;58.18;96236.69;10473166;28;20021;-32
2023/06/10 02:54:16;;;;;;;0.65;0.65;;;;;;;19.86;60.90;96232.44;10472291;28;20025;-34
2023/06/10 02:59:18;;;;;;;0.50;0.50;;;;;;;20.05;58.60;96231.34;10472565;28;20157;-32
2023/06/10 03:04:20;;;;;;;0.80;0.80;;;;;;;20.06;58.17;96241.50;10471974;28;20376;-33
2023/06/10 03:09:29;;;;;;;0.50;0.50;;;;;;;19.93;58.75;96245.03;10470685;28;20410;-34
2023/06/10 03:14:32;;;;;;;0.50;0.50;;;;;;;19.87;58.32;96250.19;10472533;28;20028;-34
2023/06/10 03:19:33;;;;;;;0.77;0.77;;;;;;;19.85;58.18;96256.97;10464093;28;20553;-33
2023/06/10 03:24:33;;;;;;;0.77;0.75;;;;;;;19.83;58.28;96252.81;10469638;28;20844;-34
2023/06/10 03:29:34;;;;;;;0.73;0.70;;;;;;;19.79;57.70;96246.06;10476429;28;20028;-34
2023/06/10 03:34:35;;;;;;;0.80;0.80;;;;;;;19.79;58.07;96261.31;10497905;28;20324;-34
2023/06/10 03:39:36;;;;;;;1.30;1.20;;;;;;;19.80;58.64;96270.59;10478260;28;20056;-33
2023/06/10 03:44:38;;;;;;;0.73;0.73;;;;;;;19.79;57.96;96264.69;10478498;28;20071;-33
2023/06/10 03:49:40;;;;;;;0.90;0.80;;;;;;;19.90;59.51;96267.06;10475217;28;20024;-33
2023/06/10 03:54:41;;;;;;;0.60;0.60;;;;;;;20.07;58.54;96270.28;10477476;28;20083;-33
2023/06/10 03:59:41;;;;;;;0.50;0.50;;;;;;;20.02;58.62;96269.47;10478774;28;20021;-33
2023/06/10 04:04:42;;;;;;;0.63;0.60;;;;;;;19.91;58.54;96273.88;10471194;28;20029;-33
2023/06/10 04:09:43;;;;;;;0.52;0.52;;;;;;;19.86;58.34;96270.53;10478424;28;21107;-32
2023/06/10 04:14:43;;;;;;;0.70;0.50;;;;;;;19.80;58.15;96266.38;10473539;28;20035;-33
2023/06/10 04:19:46;;;;;;;0.77;0.77;;;;;;;19.82;58.07;96281.56;10478148;28;20079;-32
2023/06/10 04:24:46;;;;;;;0.68;0.68;;;;;;;19.78;57.94;96277.41;10469776;28;20101;-32
2023/06/10 04:29:47;;;;;;;0.70;0.70;;;;;;;19.80;57.65;96283.31;10476476;28;20064;-33
2023/06/10 04:34:48;;;;;;;0.50;0.50;;;;;;;19.79;58.16;96286.69;10478009;28;20036;-34
2023/06/10 04:39:50;;;;;;;0.70;0.70;;;;;;;19.78;57.85;96285.03;10469975;28;20512;-33
2023/06/10 04:44:50;;;;;;;0.70;0.70;;;;;;;19.90;59.09;96289.94;10495225;28;20040;-33
2023/06/10 04:49:51;;;;;;;0.70;0.70;;;;;;;19.98;58.21;96276.31;10476002;28;20028;-33
2023/06/10 04:54:51;;;;;;;0.60;0.60;;;;;;;20.02;58.58;96294.91;10476739;28;20070;-33
2023/06/10 04:59:53;;;;;;;0.70;0.70;;;;;;;19.92;58.69;96295.88;10492982;28;20140;-33
2023/06/10 05:04:54;;;;;;;0.60;0.60;;;;;;;19.86;58.35;96296.75;10493283;28;20031;-33
2023/06/10 05:09:55;;;;;;;1.13;0.90;;;;;;;19.79;58.20;96299.41;10493813;28;20024;-33
2023/06/10 05:14:55;;;;;;;1.90;0.73;;;;;;;19.81;58.05;96303.63;10491738;28;20510;-33
2023/06/10 05:19:56;;;;;;;0.68;0.60;;;;;;;19.80;58.01;96309.56;10493738;28;20554;-33
2023/06/10 05:24:56;;;;;;;0.97;0.80;;;;;;;19.79;58.23;96307.03;10492096;28;20032;-33
2023/06/10 05:29:57;;;;;;;0.60;0.60;;;;;;;19.80;57.89;96317.19;10493453;28;20517;-33
2023/06/10 05:34:57;;;;;;;1.73;1.00;;;;;;;19.79;57.85;96314.66;10487108;28;20036;-34
2023/06/10 05:39:57;;;;;;;0.60;0.60;;;;;;;19.92;58.71;96321.28;10484364;28;20118;-34
2023/06/10 05:44:58;;;;;;;0.60;0.60;;;;;;;20.09;58.14;96320.22;10493343;28;20282;-32
2023/06/10 05:49:58;;;;;;;0.57;0.57;;;;;;;20.00;58.43;96316.94;10490502;28;20040;-32
2023/06/10 05:54:59;;;;;;;0.80;0.80;;;;;;;19.90;58.44;96315.34;10492447;28;20043;-33
2023/06/10 05:59:59;;;;;;;0.85;0.80;;;;;;;19.86;58.13;96311.19;10490580;28;20069;-33
2023/06/10 06:05:00;;;;;;;0.75;0.70;;;;;;;19.84;58.11;96315.44;10485655;28;20066;-32
2023/06/10 06:10:00;;;;;;;1.00;0.90;;;;;;;19.81;58.06;96310.38;10491949;28;20402;-33
2023/06/10 06:15:00;;;;;;;0.80;0.80;;;;;;;19.82;58.06;96312.91;10485837;28;20561;-33
2023/06/10 06:20:02;;;;;;;1.00;0.90;;;;;;;19.81;57.87;96308.69;10491954;28;20400;-33
2023/06/10 06:25:02;;;;;;;1.08;0.98;;;;;;;19.81;57.86;96300.22;10490246;28;20478;-32
2023/06/10 06:30:03;;;;;;;0.73;0.73;;;;;;;19.80;57.78;96307.03;10491600;28;20034;-34
2023/06/10 06:35:07;;;;;;;0.70;0.70;;;;;;;19.94;59.27;96306.84;10488342;28;20553;-33
2023/06/10 06:40:08;;;;;;;0.70;0.60;;;;;;;20.11;58.06;96300.72;10490957;28;20556;-32
2023/06/10 06:45:09;;;;;;;0.77;0.77;;;;;;;19.99;58.54;96305.06;10484580;28;20032;-34
2023/06/10 06:50:10;;;;;;;0.68;0.68;;;;;;;19.90;58.27;96313.66;10487558;28;20040;-33
2023/06/10 06:55:10;;;;;;;0.70;0.70;;;;;;;19.87;58.34;96317.94;10489505;28;20539;-33
2023/06/10 07:00:11;;;;;;;0.70;0.70;;;;;;;19.85;58.40;96317.94;10484177;28;20171;-33
2023/06/10 07:05:11;;;;;;;0.90;0.90;;;;;;;19.84;58.15;96315.44;10496288;28;20516;-33
2023/06/10 07:10:11;;;;;;;1.20;1.10;;;;;;;19.84;58.29;96305.28;10497600;28;20035;-33
2023/06/10 07:15:12;;;;;;;1.10;1.00;;;;;;;19.82;57.96;96306.97;10498709;28;20028;-33
2023/06/10 07:20:13;;;;;;;1.10;1.00;;;;;;;19.82;58.07;96302.75;10495711;28;20056;-33
2023/06/10 07:25:13;;;;;;;0.90;0.90;;;;;;;19.83;57.85;96298.53;10498011;28;20086;-33
2023/06/10 07:30:14;;;;;;;0.67;0.63;;;;;;;19.99;58.85;96305.94;10497173;28;20391;-32
2023/06/10 07:35:14;;;;;;;0.60;0.60;;;;;;;20.13;58.20;96298.16;10495608;28;20751;-33
2023/06/10 07:40:15;;;;;;;0.70;0.60;;;;;;;20.01;58.63;96305.91;10497371;28;20495;-33
2023/06/10 07:45:15;;;;;;;0.63;0.63;;;;;;;19.92;58.74;96295.88;10496545;28;20059;-33
2023/06/10 07:50:15;;;;;;;0.77;0.77;;;;;;;19.88;58.42;96299.28;10497357;28;20862;-33
2023/06/10 07:55:18;;;;;;;1.00;0.93;;;;;;;19.84;58.49;96295.13;10496132;28;20407;-32
2023/06/10 08:00:19;;;;;;;0.90;0.90;;;;;;;19.83;58.28;96293.44;10497500;28;20107;-32
2023/06/10 08:05:20;;;;;;;1.23;1.13;;;;;;;19.83;58.11;96291.72;10493661;28;20036;-33
2023/06/10 08:10:20;;;;;;;1.15;1.05;;;;;;;19.85;58.22;96301.88;10489540;28;20487;-33
2023/06/10 08:15:21;;;;;;;1.30;1.20;;;;;;;19.84;58.02;96307.81;10495493;28;20028;-34
2023/06/10 08:20:21;;;;;;;0.77;0.77;;;;;;;19.84;58.44;96301.03;10487283;28;20086;-32
2023/06/10 08:25:22;;;;;;;0.60;0.60;;;;;;;20.02;59.26;96300.78;10496358;28;20286;-33
2023/06/10 08:30:22;;;;;;;0.50;0.50;;;;;;;20.14;58.30;96300.69;10491865;28;20283;-33
2023/06/10 08:35:23;;;;;;;0.65;0.60;;;;;;;20.02;58.78;96298.25;10495734;28;20044;-33
2023/06/10 08:40:24;;;;;;;0.85;0.80;;;;;;;19.96;58.93;96302.59;10494035;28;20040;-35
2023/06/10 08:45:31;;;;;;;0.80;0.80;;;;;;;19.91;58.78;96301.81;10489183;28;20498;-33
2023/06/10 08:50:34;;;;;;;1.27;1.17;;;;;;;19.91;58.75;96299.28;10488252;28;20041;-33
2023/06/10 08:55:46;;;;;;;1.10;1.00;;;;;;;19.90;58.65;96302.66;10491645;28;20422;-32
2023/06/10 09:00:46;;;;;;;0.80;0.80;;;;;;;19.91;58.68;96301.81;10494726;28;20029;-33
2023/06/10 09:05:48;;;;;;;1.10;1.00;;;;;;;19.89;58.63;96298.44;10493479;28;20040;-32
2023/06/10 09:10:49;;;;;;;1.02;0.98;;;;;;;19.89;58.71;96294.19;10494074;28;20395;-33
2023/06/10 09:15:51;;;;;;;1.45;1.35;;;;;;;19.90;59.81;96295.88;10486669;28;20133;-34
2023/06/10 09:20:51;;;;;;;0.73;0.73;;;;;;;20.08;59.30;96290.59;10490203;28;20082;-33
2023/06/10 09:25:58;;;;;;;0.80;0.73;;;;;;;20.16;58.98;96293.03;10492936;28;20035;-33
2023/06/10 09:31:06;;;;;;;0.75;0.75;;;;;;;20.02;59.17;96295.72;10491833;28;20796;-33
2023/06/10 09:36:07;;;;;;;0.68;0.68;;;;;;;19.96;59.07;96289.88;10493728;28;20046;-32
2023/06/10 09:41:07;;;;;;;1.20;1.10;;;;;;;19.93;58.91;96284.84;10488492;28;20398;-33
2023/06/10 09:46:18;;;;;;;0.80;0.70;;;;;;;19.92;58.88;96290.78;10493087;28;20029;-33
2023/06/10 09:51:19;;;;;;;0.90;0.90;;;;;;;19.91;58.69;96286.56;10486583;28;20305;-34
2023/06/10 09:56:20;;;;;;;1.27;1.17;;;;;;;19.91;58.71;96289.13;10489821;28;20058;-33
2023/06/10 10:01:21;;;;;;;1.30;1.20;;;;;;;19.89;58.83;96293.34;10491386;28;20119;-33
2023/06/10 10:06:22;;;;;;;1.10;1.00;;;;;;;19.83;58.71;96279.03;10490095;28;20032;-33
2023/06/10 10:11:23;;;;;;;1.07;0.97;;;;;;;19.93;61.70;96290.75;10491786;28;20437;-32
2023/06/10 10:16:40;;;;;;;0.85;0.75;;;;;;;20.11;58.88;96284.63;10486371;28;20039;-32
2023/06/10 10:21:48;;;;;;;;;;;;;;;20.13;58.78;96283.75;10493025;28;20036;-34
2023/06/10 10:26:50;;;;;;;0.73;0.60;;;;;;;20.01;59.21;96277.97;10485765;28;20011;-33
2023/06/10 10:31:54;;;;;;;0.90;0.80;;;;;;;19.95;59.11;96283.97;10490338;28;20028;-33
2023/06/10 10:36:54;;;;;;;1.10;1.00;;;;;;;19.93;58.79;96279.75;10491068;28;20031;-31
2023/06/10 10:41:56;;;;;;;1.20;1.13;;;;;;;19.93;58.90;96282.31;10485925;28;20135;-32
2023/06/10 10:47:03;;;;;;;2.67;1.30;;;;;;;19.93;58.86;96272.13;10491252;28;20020;-32
2023/06/10 10:52:06;;;;;;;;;;;;;;;19.91;58.55;96286.56;10489522;28;20035;-32
2023/06/10 10:57:09;;;;;;;0.90;0.90;;;;;;;19.90;58.80;96282.31;10486815;28;19916;-33
2023/06/10 11:02:09;;;;;;;2.17;1.10;;;;;;;19.89;58.67;96278.09;10490819;28;20077;-33
2023/06/10 11:07:10;;;;;;;1.00;0.90;;;;;;;19.98;59.77;96261.06;10486197;28;20371;-32
2023/06/10 11:12:10;;;;;;;0.80;0.80;;;;;;;20.15;59.40;96271.88;10487879;28;20502;-32
2023/06/10 11:17:19;;;;;;;2.50;0.80;;;;;;;20.10;60.40;96272.78;10464137;28;20044;-32
2023/06/10 11:22:19;;;;;;;2.50;1.05;;;;;;;20.08;60.64;96274.53;10479724;28;20052;-33
2023/06/10 11:27:21;;;;;;;7.15;1.25;;;;;;;19.96;59.97;96261.94;10486186;28;20517;-34
2023/06/10 11:32:25;;;;;;;5.50;1.70;;;;;;;20.00;60.93;96263.59;10479497;28;20482;-33
2023/06/10 11:37:25;;;;;;;3.45;2.20;;;;;;;19.99;60.49;96252.56;10487253;28;20662;-34
2023/06/10 11:42:26;;;;;;;8.40;3.15;;;;;;;20.00;60.48;96250.88;10487721;28;20039;-35
2023/06/10 11:47:26;;;;;;;7.00;2.70;;;;;;;20.10;61.83;96258.38;10487778;28;20040;-34
2023/06/10 11:52:37;;;;;;;8.80;2.90;;;;;;;19.93;61.25;96251.81;10488119;28;20043;-33
2023/06/10 11:57:38;;;;;;;3.83;2.20;;;;;;;20.19;61.63;96254.88;10484432;28;20036;-34
2023/06/10 12:02:38;;;;;;;5.25;2.15;;;;;;;20.34;60.31;96257.22;10496138;28;20029;-34
2023/06/10 12:07:38;;;;;;;3.57;2.90;;;;;;;20.22;60.91;96249.75;10487508;28;20040;-35
2023/06/10 12:12:40;;;;;;;2.50;1.90;;;;;;;20.12;60.68;96256.66;10493426;28;20086;-34
2023/06/10 12:17:43;;;;;;;3.80;2.00;;;;;;;20.10;60.57;96255.00;10492619;28;20063;-34
2023/06/10 12:22:44;;;;;;;3.97;1.60;;;;;;;20.03;60.39;96248.28;10495556;28;20490;-34
2023/06/10 12:27:52;;;;;;;1.92;1.83;;;;;;;20.02;60.30;96242.34;10488161;28;20501;-33
2023/06/10 12:32:54;;;;;;;3.70;1.80;;;;;;;20.03;60.26;96243.19;10488121;28;20490;-36
2023/06/10 12:38:04;;;;;;;4.20;1.67;;;;;;;20.02;60.68;96241.53;10494677;28;20175;-34
2023/06/10 12:43:06;;;;;;;2.47;1.73;;;;;;;20.02;60.50;96236.44;10488939;28;20040;-34
2023/06/10 12:48:24;;;;;;;4.15;2.67;;;;;;;20.10;61.41;96247.38;10492576;28;20033;-34
2023/06/10 12:53:28;;;;;;;2.65;2.45;;;;;;;20.32;60.56;96238.56;10487808;28;20388;-34
2023/06/10 12:58:28;;;;;;;2.22;1.90;;;;;;;20.38;59.71;96233.41;10519152;28;20028;-34
2023/06/10 13:03:29;;;;;;;2.13;1.73;;;;;;;20.20;59.95;96236.22;10508784;28;20486;-35
2023/06/10 13:08:29;;;;;;;3.17;2.20;;;;;;;20.12;60.18;96222.78;10491414;28;20124;-35
2023/06/10 13:13:30;;;;;;;5.60;3.40;;;;;;;20.10;60.37;96229.59;10492833;28;20514;-36
2023/06/10 13:18:30;;;;;;;7.80;3.10;;;;;;;20.14;61.57;96223.59;10495018;28;20428;-34
2023/06/10 13:23:31;;;;;;;7.45;3.70;;;;;;;20.23;62.71;96219.22;10499280;28;20124;-34
2023/06/10 13:28:31;;;;;;;9.00;3.42;;;;;;;20.42;61.67;96216.38;10494776;28;20033;-34
2023/06/10 13:33:32;;;;;;;3.33;3.03;;;;;;;20.44;61.07;96214.66;10492869;28;20091;-35
2023/06/10 13:38:32;;;;;;;6.73;4.13;;;;;;;20.29;61.21;96208.13;10491466;28;20283;-35
2023/06/10 13:43:32;;;;;;;6.63;4.17;;;;;;;20.22;61.08;96202.28;10492643;28;20581;-34
2023/06/10 13:48:33;;;;;;;13.33;3.20;;;;;;;20.36;61.46;96205.44;10484788;28;20328;-32
2023/06/10 13:53:34;;;;;;;8.88;3.13;;;;;;;20.46;59.99;96187.47;10488875;28;20048;-33
2023/06/10 13:58:38;;;;;;;4.68;3.42;;;;;;;20.36;60.60;96187.66;10491652;28;20028;-33
2023/06/10 14:03:39;;;;;;;7.80;3.15;;;;;;;20.30;61.54;96185.22;10484901;28;20036;-33
2023/06/10 14:08:39;;;;;;;6.73;3.77;;;;;;;20.21;61.12;96184.50;10489666;28;20032;-33
2023/06/10 14:13:40;;;;;;;3.75;3.03;;;;;;;20.41;60.57;96188.44;10476091;28;20299;-34
2023/06/10 14:18:40;;;;;;;3.35;3.05;;;;;;;20.47;60.28;96184.06;10483383;28;20376;-33
2023/06/10 14:23:41;;;;;;;7.40;2.43;;;;;;;20.33;60.41;96179.25;10471807;28;20040;-34
2023/06/10 14:28:41;;;;;;;3.83;2.80;;;;;;;20.23;60.41;96175.16;10489586;28;20132;-34
2023/06/10 14:33:43;;;;;;;3.90;3.50;;;;;;;20.19;61.53;96174.34;10485164;28;20045;-33
2023/06/10 14:38:43;;;;;;;3.88;3.50;;;;;;;20.45;60.23;96160.38;10477148;28;20091;-33
2023/06/10 14:43:44;;;;;;;5.80;3.13;;;;;;;20.45;60.02;96164.66;10483489;28;20037;-34
2023/06/10 14:48:44;;;;;;;6.40;5.03;;;;;;;20.36;60.41;96163.94;10489099;28;20036;-34
2023/06/10 14:53:45;;;;;;;5.33;4.63;;;;;;;20.32;62.01;96159.75;10491335;28;20032;-33
2023/06/10 14:58:45;;;;;;;7.97;6.13;;;;;;;20.30;63.21;96151.31;10484678;28;20287;-33
2023/06/10 15:03:46;;;;;;;4.30;3.27;;;;;;;20.49;60.60;96164.56;10490074;28;20403;-33
2023/06/10 15:08:48;;;;;;;7.90;4.03;;;;;;;20.46;62.19;96146.81;10494137;28;20087;-33
2023/06/10 15:13:48;;;;;;;4.28;3.30;;;;;;;20.36;61.00;96143.59;10490544;28;20119;-34
2023/06/10 15:18:49;;;;;;;4.03;3.63;;;;;;;20.27;60.63;96142.03;10481684;28;20529;-33
2023/06/10 15:23:49;;;;;;;5.37;4.60;;;;;;;20.29;63.02;96137.78;10479591;28;20040;-35
2023/06/10 15:28:50;;;;;;;4.07;3.72;;;;;;;20.50;60.62;96137.41;10496586;28;20473;-32
2023/06/10 15:33:50;;;;;;;7.30;3.08;;;;;;;20.49;60.58;96141.69;10493532;28;20036;-33
2023/06/10 15:38:51;;;;;;;5.63;4.10;;;;;;;20.37;62.30;96150.38;10497326;28;20033;-32
2023/06/10 15:43:51;;;;;;;4.63;4.10;;;;;;;20.34;61.72;96145.34;10492382;28;20067;-34
2023/06/10 15:48:53;;;;;;;4.93;3.97;;;;;;;20.46;62.62;96141.72;10492081;28;20631;-34
2023/06/10 15:53:53;;;;;;;7.35;3.33;;;;;;;20.58;61.62;96128.81;10490810;28;20028;-34
2023/06/10 15:58:54;;;;;;;5.85;4.53;;;;;;;20.49;62.87;96131.50;10497572;28;20033;-33
2023/06/10 16:03:54;;;;;;;6.57;3.67;;;;;;;20.40;61.56;96133.34;10488074;28;20410;-33
2023/06/10 16:08:55;;;;;;;14.00;4.80;;;;;;;20.33;61.19;96138.59;10495021;28;20045;-34
2023/06/10 16:13:55;;;;;;;13.07;5.45;;;;;;;20.46;64.05;96131.53;10501052;28;20093;-33
2023/06/10 16:18:56;;;;;;;6.33;3.73;;;;;;;20.62;61.64;96135.50;10499121;28;20035;-33
2023/06/10 16:23:56;;;;;;;7.90;3.73;;;;;;;20.57;61.01;96132.19;10485854;28;20111;-33
2023/06/10 16:28:56;;;;;;;6.03;3.00;;;;;;;20.33;60.74;96116.53;10493351;28;20302;-34
2023/06/10 16:33:57;;;;;;;9.23;3.37;;;;;;;20.19;61.51;96135.41;10488856;28;20047;-34
2023/06/10 16:38:57;;;;;;;7.73;2.67;;;;;;;20.20;61.63;96132.00;10503678;28;20033;-33
2023/06/10 16:43:57;;;;;;;6.23;3.60;;;;;;;20.46;61.11;96149.34;10493990;28;20052;-33
2023/06/10 16:48:58;;;;;;;5.77;2.73;;;;;;;20.43;60.60;96146.88;10495746;28;20286;-34
2023/06/10 16:53:58;;;;;;;4.73;2.67;;;;;;;20.30;60.69;96153.88;10494841;28;20321;-34
2023/06/10 16:58:58;;;;;;;5.53;3.00;;;;;;;20.22;61.05;96158.22;10494359;28;20398;-34
2023/06/10 17:03:59;;;;;;;6.28;2.70;;;;;;;20.17;61.12;96152.41;10490493;28;20036;-33
2023/06/10 17:08:59;;;;;;;4.70;2.67;;;;;;;20.38;60.75;96153.72;10493232;28;20113;-35
2023/06/10 17:14:00;;;;;;;2.53;2.30;;;;;;;20.51;59.58;96160.28;10488805;28;20035;-34
2023/06/10 17:19:00;;;;;;;8.00;2.40;;;;;;;20.40;60.07;96163.88;10479574;28;20041;-34
2023/06/10 17:24:00;;;;;;;2.33;2.13;;;;;;;20.34;60.49;96171.59;10486507;28;20305;-33
2023/06/10 17:29:02;;;;;;;5.70;2.80;;;;;;;20.29;60.59;96172.53;10483079;28;20032;-33
2023/06/10 17:34:02;;;;;;;5.07;3.10;;;;;;;20.32;62.42;96175.88;10487484;28;20040;-34
2023/06/10 17:39:02;;;;;;;8.93;5.00;;;;;;;20.55;63.35;96181.41;10487955;28;20028;-33
2023/06/10 17:44:04;;;;;;;24.63;5.20;;;;;;;20.52;61.68;96186.53;10485666;28;20503;-34
2023/06/10 17:49:05;;;;;;;24.88;4.90;;;;;;;20.45;62.49;96183.25;10485363;28;20313;-34
2023/06/10 17:54:06;;;;;;;15.87;5.10;;;;;;;20.39;60.99;96185.91;10477181;28;20503;-33
2023/06/10 17:59:07;;;;;;;19.98;5.15;;;;;;;20.33;61.23;96197.06;10483196;28;20353;-34
2023/06/10 18:04:07;;;;;;;14.60;4.65;;;;;;;20.53;61.93;96203.47;10489673;28;20070;-33
2023/06/10 18:09:08;;;;;;;8.73;4.13;;;;;;;20.60;60.93;96200.81;10480039;28;20064;-34
2023/06/10 18:14:09;;;;;;;8.57;3.67;;;;;;;20.48;61.65;96206.09;10499779;28;20106;-33
2023/06/10 18:19:09;;;;;;;27.35;6.63;;;;;;;20.39;61.47;96213.88;10486961;28;20078;-35
2023/06/10 18:24:10;;;;;;;5.77;4.30;;;;;;;20.33;61.16;96214.84;10485243;28;20047;-34
2023/06/10 18:29:10;;;;;;;10.15;5.10;;;;;;;20.36;62.07;96232.59;10484292;28;20298;-35
2023/06/10 18:34:11;;;;;;;9.53;4.07;;;;;;;20.56;61.20;96241.59;10485276;28;20035;-34
2023/06/10 18:39:11;;;;;;;7.10;3.50;;;;;;;20.58;60.73;96238.16;10481277;28;20491;-35
2023/06/10 18:44:11;;;;;;;13.85;4.28;;;;;;;20.45;61.94;96236.66;10480199;28;20037;-34
2023/06/10 18:49:12;;;;;;;12.27;4.20;;;;;;;20.40;61.10;96246.06;10485466;28;20036;-35
2023/06/10 18:54:15;;;;;;;11.63;6.27;;;;;;;20.42;61.60;96254.53;10477846;28;20313;-34
2023/06/10 18:59:15;;;;;;;11.07;6.95;;;;;;;20.44;64.70;96250.25;10490243;28;20719;-35
2023/06/10 19:04:15;;;;;;;19.25;6.05;;;;;;;20.67;64.96;96253.28;10493396;28;20040;-34
2023/06/10 19:09:16;;;;;;;10.90;4.15;;;;;;;20.65;62.41;96260.06;10496205;28;20262;-34
2023/06/10 19:14:16;;;;;;;15.98;5.38;;;;;;;20.52;62.11;96268.78;10494215;28;20040;-34
2023/06/10 19:19:17;;;;;;;9.73;4.40;;;;;;;20.44;61.77;96268.03;10511044;28;20455;-35
2023/06/10 19:24:17;;;;;;;8.53;3.47;;;;;;;20.38;62.59;96264.75;10489813;28;20032;-35
2023/06/10 19:29:17;;;;;;;4.23;3.80;;;;;;;20.37;62.06;96273.25;10494396;28;20299;-34
2023/06/10 19:34:18;;;;;;;7.47;3.80;;;;;;;20.60;62.22;96276.28;10497853;28;20037;-33
2023/06/10 19:39:18;;;;;;;6.70;3.63;;;;;;;20.65;61.19;96289.78;10513558;28;20568;-35
2023/06/10 19:44:19;;;;;;;8.25;4.10;;;;;;;20.50;61.58;96288.31;10515312;28;20036;-34
2023/06/10 19:49:19;;;;;;;8.33;5.10;;;;;;;20.46;61.31;96301.09;10492369;28;20029;-34
2023/06/10 19:54:19;;;;;;;5.90;3.78;;;;;;;20.48;62.60;96310.34;10494580;28;20293;-35
2023/06/10 19:59:20;;;;;;;9.47;4.10;;;;;;;20.44;61.98;96316.34;10494791;28;20437;-35
2023/06/10 20:04:20;;;;;;;7.50;3.50;;;;;;;20.60;61.92;96322.91;10492923;28;20286;-36
2023/06/10 20:09:21;;;;;;;4.27;3.30;;;;;;;20.66;60.92;96317.75;10489756;28;20302;-34
2023/06/10 20:14:21;;;;;;;5.23;3.53;;;;;;;20.53;61.91;96326.41;10494910;28;20035;-35
2023/06/10 20:19:21;;;;;;;7.43;4.15;;;;;;;20.45;61.57;96330.75;10496444;28;20027;-36
2023/06/10 20:24:22;;;;;;;6.17;4.23;;;;;;;20.40;61.27;96331.69;10490515;28;20036;-34
2023/06/10 20:29:25;;;;;;;5.77;3.63;;;;;;;20.34;61.10;96334.31;10492934;28;20086;-35
2023/06/10 20:34:26;;;;;;;4.50;3.10;;;;;;;20.50;61.83;96335.78;10495606;28;20115;-35
2023/06/10 20:39:26;;;;;;;8.33;3.10;;;;;;;20.65;60.49;96341.47;10488651;28;20119;-36
2023/06/10 20:44:26;;;;;;;4.30;2.63;;;;;;;20.54;61.17;96348.44;10494402;28;20029;-34
2023/06/10 20:49:27;;;;;;;3.53;3.20;;;;;;;20.44;61.06;96346.88;10487516;28;20303;-36
2023/06/10 20:54:27;;;;;;;3.00;2.47;;;;;;;20.38;60.68;96360.53;10495062;28;20056;-35
2023/06/10 20:59:27;;;;;;;3.90;2.57;;;;;;;20.35;60.88;96361.41;10493289;28;20042;-35
2023/06/10 21:04:28;;;;;;;3.87;3.33;;;;;;;20.42;62.44;96367.28;10493759;28;20043;-35
2023/06/10 21:09:28;;;;;;;4.23;3.00;;;;;;;20.60;60.89;96362.75;10492593;28;20032;-35
2023/06/10 21:14:28;;;;;;;3.30;2.53;;;;;;;20.58;60.44;96362.81;10494186;28;20437;-34
2023/06/10 21:19:29;;;;;;;5.80;3.10;;;;;;;20.47;60.95;96363.81;10491208;28;20515;-34
2023/06/10 21:24:29;;;;;;;4.70;3.23;;;;;;;20.42;60.73;96372.34;10488490;28;20490;-35
2023/06/10 21:29:29;;;;;;;5.07;2.80;;;;;;;20.36;60.79;96374.97;10493059;28;20037;-35
2023/06/10 21:34:30;;;;;;;2.90;2.30;;;;;;;20.34;60.47;96366.53;10488393;28;20780;-34
2023/06/10 21:39:30;;;;;;;4.00;2.73;;;;;;;20.51;61.27;96361.19;10492138;28;20036;-33
2023/06/10 21:44:30;;;;;;;3.07;2.30;;;;;;;20.64;60.09;96360.16;10489991;28;20040;-34
2023/06/10 21:49:31;;;;;;;2.53;2.30;;;;;;;20.54;60.61;96362.88;10492624;28;20029;-35
2023/06/10 21:54:31;;;;;;;5.43;2.43;;;;;;;20.47;61.07;96371.44;10486638;28;20031;-35
2023/06/10 21:59:33;;;;;;;4.50;3.43;;;;;;;20.42;60.65;96374.03;10491373;28;20036;-34
2023/06/10 22:04:34;;;;;;;5.38;3.75;;;;;;;20.38;60.72;96374.91;10485231;28;20406;-35
2023/06/10 22:09:34;;;;;;;4.25;2.50;;;;;;;20.38;61.15;96373.25;10489697;28;20028;-35
2023/06/10 22:14:37;;;;;;;3.13;2.83;;;;;;;20.57;61.34;96362.81;10492162;28;20039;-34
2023/06/10 22:19:38;;;;;;;2.53;2.13;;;;;;;20.61;59.89;96365.28;10490262;28;20029;-35
2023/06/10 22:24:41;;;;;;;3.40;2.72;;;;;;;20.49;60.90;96380.72;10491184;28;20108;-36
2023/06/10 22:29:42;;;;;;;3.85;2.70;;;;;;;20.43;60.67;96373.16;10488610;28;20078;-34
2023/06/10 22:34:42;;;;;;;4.00;2.77;;;;;;;20.38;60.33;96370.69;10491272;28;20029;-35
2023/06/10 22:39:43;;;;;;;3.67;2.37;;;;;;;20.36;60.56;96367.34;10485501;28;20028;-35
2023/06/10 22:44:43;;;;;;;4.20;3.20;;;;;;;20.43;62.51;96375.72;10491145;28;20032;-36
2023/06/10 22:49:43;;;;;;;3.03;2.40;;;;;;;20.60;60.49;96358.53;10487678;28;20541;-34
2023/06/10 22:54:44;;;;;;;2.27;1.93;;;;;;;20.57;60.21;96358.53;10488425;28;20025;-34
2023/06/10 22:59:44;;;;;;;2.70;2.30;;;;;;;20.44;60.40;96367.22;10490830;28;20024;-34
2023/06/10 23:04:44;;;;;;;2.20;2.00;;;;;;;20.38;60.15;96365.63;10484012;28;20032;-35
2023/06/10 23:09:45;;;;;;;2.00;1.80;;;;;;;20.34;60.13;96369.06;10489426;28;20029;-35
2023/06/10 23:14:46;;;;;;;2.88;2.00;;;;;;;20.33;60.08;96362.31;10485118;28;20043;-34
2023/06/10 23:19:46;;;;;;;3.80;3.40;;;;;;;20.45;61.88;96368.06;10490422;28;20028;-35